Time;durP1;ratioP1;P1;durP2;ratioP2;P2;SDS_P1;SDS_P2;PMS_P1;PMS_P2;Temp;Humidity;BMP_temperature;BMP_pressure;BME280_temperature;BME280_humidity;BME280_pressure;Samples;Min_cycle;Max_cycle;Signal;HPM_P1;HPM_P2
2023/03/03 00:01:58;;;;;;;;;;;;;;;23.62;35.13;95155.91;5040072;28;1965;-70
2023/03/03 00:04:24;;;;;;;;;;;;;;;23.66;35.06;95153.63;5023768;28;1567;-70
2023/03/03 00:06:49;;;;;;;;;;;;;;;23.68;35.46;95154.19;5023784;28;1198;-71
2023/03/03 00:09:14;;;;;;;;;;;;;;;23.55;35.14;95155.16;5037233;28;1317;-73
2023/03/03 00:11:39;;;;;;;;;;;;;;;23.43;35.40;95147.03;5030897;28;1453;-73
2023/03/03 00:14:16;;;;;;;;;;;;;;;23.38;35.66;95146.06;5032572;28;1139;-72
2023/03/03 00:16:41;;;;;;;;;;;;;;;23.33;36.06;95146.69;5022846;28;1334;-72
2023/03/03 00:19:19;;;;;;;;;;;;;;;23.35;35.88;95144.63;5033957;28;1420;-72
2023/03/03 00:21:46;;;;;;;;;;;;;;;23.35;35.84;95142.78;5030437;28;1199;-72
2023/03/03 00:24:20;;;;;;;;;;;;;;;23.31;36.22;95143.44;5031987;28;1968;-71
2023/03/03 00:26:54;;;;;;;;;;;;;;;23.27;36.25;95148.41;5028094;28;1332;-71
2023/03/03 00:29:22;;;;;;;;;;;;;;;23.31;36.37;95144.25;5014051;28;1237;-72
2023/03/03 00:31:48;;;;;;;;;;;;;;;23.34;36.29;95145.69;5042593;28;1221;-71
2023/03/03 00:34:16;;;;;;;;;;;;;;;23.38;36.47;95141.50;5047889;28;1325;-70
2023/03/03 00:36:42;;;;;;;;;;;;;;;23.38;36.18;95144.19;5040882;28;1429;-70
2023/03/03 00:39:19;;;;;;;;;;;;;;;23.37;36.41;95137.22;5021395;28;1247;-73
2023/03/03 00:41:44;;;;;;;;;;;;;;;23.39;36.51;95128.94;5028158;28;1328;-72
2023/03/03 00:44:28;;;;;;;;;;;;;;;23.40;36.68;95130.59;5033320;28;1977;-73
2023/03/03 00:46:55;;;;;;;;;;;;;;;23.38;36.79;95125.44;5031240;28;1265;-73
2023/03/03 00:49:23;;;;;;;;;;;;;;;23.38;36.85;95122.78;5024537;28;1151;-72
2023/03/03 00:51:49;;;;;;;;;;;;;;;23.43;36.92;95114.91;5031290;28;1370;-71
2023/03/03 00:54:14;;;;;;;;;;;;;;;23.45;37.10;95115.50;5032457;28;1429;-71
2023/03/03 00:56:39;;;;;;;;;;;;;;;23.47;37.09;95109.91;5022286;28;1472;-75
2023/03/03 00:59:06;;;;;;;;;;;;;;;23.57;36.90;95108.38;5014479;28;1418;-73
2023/03/03 01:01:31;;;;;;;;;;;;;;;23.77;36.67;95102.03;5022443;28;1500;-74
2023/03/03 01:03:57;;;;;;;;;;;;;;;23.91;36.46;95100.03;5047751;28;1910;-73
2023/03/03 01:06:22;;;;;;;;;;;;;;;23.93;36.33;95104.09;5046485;28;1472;-73
2023/03/03 01:08:47;;;;;;;;;;;;;;;23.96;36.13;95100.97;5032396;28;1421;-73
2023/03/03 01:11:16;;;;;;;;;;;;;;;23.95;36.17;95095.84;5016576;28;1488;-73
2023/03/03 01:13:43;;;;;;;;;;;;;;;23.97;36.18;95089.22;5018551;28;1331;-73
2023/03/03 01:16:08;;;;;;;;;;;;;;;23.95;36.19;95093.16;5034412;28;1485;-74
2023/03/03 01:18:35;;;;;;;;;;;;;;;23.94;36.00;95089.66;5036569;28;1406;-74
2023/03/03 01:21:00;;;;;;;;;;;;;;;23.98;36.01;95095.38;5049737;28;1339;-74
2023/03/03 01:23:26;;;;;;;;;;;;;;;23.99;36.14;95092.50;5017058;28;2027;-72
2023/03/03 01:25:51;;;;;;;;;;;;;;;24.01;35.94;95093.06;5038665;28;1266;-74
2023/03/03 01:28:17;;;;;;;;;;;;;;;24.00;36.11;95094.13;5040688;28;1552;-74
2023/03/03 01:30:42;;;;;;;;;;;;;;;23.98;36.24;95088.16;5055816;28;1400;-74
2023/03/03 01:33:07;;;;;;;;;;;;;;;23.99;36.19;95087.13;5032048;28;1519;-74
2023/03/03 01:35:35;;;;;;;;;;;;;;;24.00;36.05;95080.72;5035326;28;1145;-74
2023/03/03 01:38:00;;;;;;;;;;;;;;;23.98;36.34;95079.31;5022184;28;1421;-74
2023/03/03 01:40:27;;;;;;;;;;;;;;;23.87;35.99;95072.03;5039117;28;1350;-79
2023/03/03 01:42:53;;;;;;;;;;;;;;;23.66;36.32;95075.94;5041511;28;1906;-77
2023/03/03 01:45:23;;;;;;;;;;;;;;;23.59;36.62;95086.72;5017359;28;1303;-76
2023/03/03 01:47:54;;;;;;;;;;;;;;;23.47;36.98;95075.94;5025445;28;1401;-78
2023/03/03 01:50:45;;;;;;;;;;;;;;;23.44;36.92;95072.88;5049160;28;1366;-78
2023/03/03 01:53:16;;;;;;;;;;;;;;;23.43;37.20;95073.94;5016002;28;1426;-78
2023/03/03 01:55:43;;;;;;;;;;;;;;;23.46;37.17;95076.16;5033859;28;1160;-77
2023/03/03 01:58:14;;;;;;;;;;;;;;;23.45;37.30;95075.34;5010244;28;1445;-78
2023/03/03 02:00:41;;;;;;;;;;;;;;;23.42;37.18;95067.72;5048300;28;1138;-77
2023/03/03 02:03:06;;;;;;;;;;;;;;;23.42;36.97;95065.06;5026340;28;1981;-77
2023/03/03 02:05:32;;;;;;;;;;;;;;;23.42;37.22;95064.25;5023549;28;1396;-77
2023/03/03 02:07:58;;;;;;;;;;;;;;;23.41;37.24;95071.47;5016815;28;1433;-78
2023/03/03 02:10:23;;;;;;;;;;;;;;;23.41;37.05;95068.78;5041794;28;1421;-78
2023/03/03 02:12:50;;;;;;;;;;;;;;;23.37;37.17;95066.75;5025196;28;1358;-78
2023/03/03 02:15:17;;;;;;;;;;;;;;;23.40;37.15;95063.66;5034881;28;1179;-77
2023/03/03 02:17:42;;;;;;;;;;;;;;;23.38;37.16;95061.19;5041377;28;1408;-77
2023/03/03 02:20:14;;;;;;;;;;;;;;;23.38;37.43;95061.19;5027008;28;1231;-78
2023/03/03 02:22:46;;;;;;;;;;;;;;;23.37;37.15;95072.97;5038729;28;1963;-77
2023/03/03 02:25:14;;;;;;;;;;;;;;;23.38;37.28;95066.56;5044002;28;1551;-78
2023/03/03 02:27:41;;;;;;;;;;;;;;;23.38;37.28;95065.75;5038279;28;1290;-77
2023/03/03 02:30:08;;;;;;;;;;;;;;;23.38;37.36;95068.41;5047211;28;1226;-75
2023/03/03 02:32:33;;;;;;;;;;;;;;;23.38;37.45;95069.22;5032000;28;1186;-76
2023/03/03 02:34:58;;;;;;;;;;;;;;;23.40;37.28;95066.34;5036096;28;1384;-77
2023/03/03 02:37:24;;;;;;;;;;;;;;;23.34;37.60;95066.19;5039211;28;1127;-76
2023/03/03 02:39:49;;;;;;;;;;;;;;;23.35;37.61;95072.34;5042214;28;1480;-77
2023/03/03 02:42:18;;;;;;;;;;;;;;;23.35;37.43;95064.31;5045240;28;1906;-75
2023/03/03 02:44:44;;;;;;;;;;;;;;;23.36;37.68;95060.59;5042645;28;1397;-75
2023/03/03 02:47:09;;;;;;;;;;;;;;;23.34;37.58;95068.06;5039518;28;1437;-72
2023/03/03 02:49:35;;;;;;;;;;;;;;;23.36;37.67;95065.94;5027264;28;1301;-72
2023/03/03 02:52:01;;;;;;;;;;;;;;;23.37;37.33;95067.59;5036406;28;1417;-72
2023/03/03 02:54:29;;;;;;;;;;;;;;;23.41;37.76;95063.44;5023901;28;1217;-71
2023/03/03 02:56:54;;;;;;;;;;;;;;;23.40;37.42;95061.81;5034490;28;1353;-71
2023/03/03 02:59:20;;;;;;;;;;;;;;;23.40;37.58;95059.13;5035048;28;1257;-72
2023/03/03 03:01:46;;;;;;;;;;;;;;;23.39;37.55;95059.34;5044484;28;1448;-73
2023/03/03 03:04:12;;;;;;;;;;;;;;;23.39;37.52;95059.34;5038942;28;1967;-72
2023/03/03 03:06:37;;;;;;;;;;;;;;;23.37;37.56;95059.56;5005004;28;1269;-72
2023/03/03 03:09:04;;;;;;;;;;;;;;;23.39;37.82;95056.66;5033285;28;1217;-72
2023/03/03 03:11:29;;;;;;;;;;;;;;;23.40;37.55;95058.31;5034790;28;1447;-72
2023/03/03 03:13:54;;;;;;;;;;;;;;;23.40;37.51;95061.00;5033187;28;1179;-71
2023/03/03 03:16:20;;;;;;;;;;;;;;;23.42;37.63;95053.53;5015644;28;1491;-72
2023/03/03 03:18:45;;;;;;;;;;;;;;;23.40;37.51;95061.00;5015159;28;1386;-71
2023/03/03 03:21:12;;;;;;;;;;;;;;;23.38;37.57;95057.72;5036519;28;1369;-71
2023/03/03 03:23:37;;;;;;;;;;;;;;;23.39;37.67;95054.78;5039962;28;1898;-74
2023/03/03 03:26:03;;;;;;;;;;;;;;;23.39;37.63;95059.34;5032501;28;1135;-70
2023/03/03 03:28:28;;;;;;;;;;;;;;;23.38;37.81;95052.34;5024635;28;1154;-70
2023/03/03 03:30:54;;;;;;;;;;;;;;;23.37;37.87;95056.06;5010724;28;1497;-71
2023/03/03 03:33:19;;;;;;;;;;;;;;;23.40;38.04;95051.09;5020058;28;1409;-71
2023/03/03 03:35:46;;;;;;;;;;;;;;;23.42;37.94;95049.00;5034118;28;1138;-71
2023/03/03 03:38:11;;;;;;;;;;;;;;;23.38;38.16;95042.47;5032502;28;1179;-70
2023/03/03 03:40:37;;;;;;;;;;;;;;;23.35;38.19;95042.91;5021197;28;1227;-71
2023/03/03 03:43:02;;;;;;;;;;;;;;;23.36;38.25;95036.50;5040413;28;1894;-71
2023/03/03 03:45:28;;;;;;;;;;;;;;;23.37;38.30;95038.16;5032372;28;1307;-71
2023/03/03 03:47:54;;;;;;;;;;;;;;;23.38;38.06;95036.28;5016754;28;1476;-75
2023/03/03 03:50:19;;;;;;;;;;;;;;;23.36;38.25;95036.50;5032922;28;1389;-71
2023/03/03 03:52:44;;;;;;;;;;;;;;;23.39;38.48;95040.59;5036506;28;1207;-71
2023/03/03 03:55:10;;;;;;;;;;;;;;;23.38;38.41;95029.06;5027973;28;1506;-70
2023/03/03 03:57:35;;;;;;;;;;;;;;;23.41;38.50;95031.31;5037681;28;1497;-71
2023/03/03 04:00:00;;;;;;;;;;;;;;;23.48;38.64;95032.06;5033718;28;1448;-71
2023/03/03 04:02:26;;;;;;;;;;;;;;;23.52;38.44;95027.88;5040271;28;1977;-71
2023/03/03 04:04:51;;;;;;;;;;;;;;;23.60;38.48;95037.50;5051386;28;1104;-70
2023/03/03 04:07:16;;;;;;;;;;;;;;;23.62;38.28;95024.66;5044908;28;1444;-70
2023/03/03 04:09:41;;;;;;;;;;;;;;;23.57;38.43;95029.91;5016959;28;1445;-70
2023/03/03 04:12:07;;;;;;;;;;;;;;;23.57;38.51;95027.22;5033754;28;1315;-70
2023/03/03 04:14:32;;;;;;;;;;;;;;;23.57;38.33;95030.72;5039296;28;1492;-74
2023/03/03 04:16:57;;;;;;;;;;;;;;;23.57;38.24;95030.72;5022477;28;1410;-70
2023/03/03 04:19:23;;;;;;;;;;;;;;;23.55;38.19;95029.31;5025033;28;1370;-70
2023/03/03 04:21:48;;;;;;;;;;;;;;;23.55;38.22;95030.13;5044396;28;1424;-71
2023/03/03 04:24:13;;;;;;;;;;;;;;;23.54;38.18;95025.81;5040223;28;1910;-70
2023/03/03 04:26:39;;;;;;;;;;;;;;;23.55;38.17;95031.97;5021651;28;1243;-71
2023/03/03 04:29:04;;;;;;;;;;;;;;;23.54;38.20;95023.13;5015984;28;1345;-70
2023/03/03 04:31:29;;;;;;;;;;;;;;;23.54;38.36;95025.81;5015981;28;1172;-70
2023/03/03 04:33:55;;;;;;;;;;;;;;;23.56;38.21;95017.53;5038645;28;1476;-71
2023/03/03 04:36:20;;;;;;;;;;;;;;;23.53;38.48;95024.16;5036829;28;1500;-73
2023/03/03 04:38:46;;;;;;;;;;;;;;;23.56;38.22;95021.06;5033354;28;1246;-70
2023/03/03 04:41:11;;;;;;;;;;;;;;;23.54;38.08;95023.13;5014902;28;1341;-76
2023/03/03 04:43:36;;;;;;;;;;;;;;;23.44;38.57;95019.34;5014743;28;1968;-71
2023/03/03 04:46:02;;;;;;;;;;;;;;;23.46;38.46;95015.41;5032046;28;1154;-71
2023/03/03 04:48:27;;;;;;;;;;;;;;;23.42;38.72;95022.22;5005122;28;1449;-70
2023/03/03 04:50:53;;;;;;;;;;;;;;;23.44;38.46;95017.47;5035111;28;1295;-71
2023/03/03 04:53:18;;;;;;;;;;;;;;;23.39;38.53;95016.50;5035227;28;1275;-79
2023/03/03 04:55:43;;;;;;;;;;;;;;;23.36;39.04;95020.44;5027522;28;1240;-72
2023/03/03 04:58:09;;;;;;;;;;;;;;;23.48;38.72;95025.88;5032371;28;1171;-71
2023/03/03 05:00:34;;;;;;;;;;;;;;;23.48;38.48;95031.22;5022839;28;1419;-79
2023/03/03 05:03:00;;;;;;;;;;;;;;;23.47;38.44;95030.41;5032393;28;1977;-70
2023/03/03 05:05:25;;;;;;;;;;;;;;;23.57;38.12;95033.41;5034060;28;1182;-70
2023/03/03 05:07:51;;;;;;;;;;;;;;;23.60;38.26;95025.97;5038271;28;1472;-71
2023/03/03 05:10:16;;;;;;;;;;;;;;;23.52;38.40;95027.06;5035807;28;1202;-71
2023/03/03 05:12:42;;;;;;;;;;;;;;;23.41;38.18;95030.50;5029729;28;1358;-72
2023/03/03 05:15:07;;;;;;;;;;;;;;;23.33;38.21;95034.28;5022985;28;1237;-73
2023/03/03 05:17:33;;;;;;;;;;;;;;;22.53;29.55;95032.28;5032592;28;1452;-72
2023/03/03 05:19:58;;;;;;;;;;;;;;;21.45;29.61;95040.22;5047737;28;1333;-74
2023/03/03 05:22:23;;;;;;;;;;;;;;;20.87;30.23;95036.38;5016376;28;1906;-73
2023/03/03 05:24:49;;;;;;;;;;;;;;;20.62;30.15;95048.69;5031527;28;1128;-73
2023/03/03 05:27:14;;;;;;;;;;;;;;;20.35;30.45;95043.34;5030875;28;1548;-73
2023/03/03 05:29:40;;;;;;;;;;;;;;;20.14;30.40;95041.63;5030374;28;1492;-71
2023/03/03 05:32:05;;;;;;;;;;;;;;;20.04;30.25;95051.06;5020298;28;1579;-72
2023/03/03 05:34:31;;;;;;;;;;;;;;;19.91;30.42;95052.63;5014483;28;1392;-74
2023/03/03 05:36:56;;;;;;;;;;;;;;;19.75;30.58;95053.84;5021328;28;1325;-72
2023/03/03 05:39:22;;;;;;;;;;;;;;;19.65;30.44;95048.03;5016102;28;1224;-72
2023/03/03 05:41:47;;;;;;;;;;;;;;;19.58;30.69;95043.66;5035326;28;1132;-72
2023/03/03 05:44:13;;;;;;;;;;;;;;;19.52;30.31;95048.78;5008177;28;1894;-72
2023/03/03 05:46:38;;;;;;;;;;;;;;;19.43;30.48;95039.31;5030786;28;1416;-71
2023/03/03 05:49:03;;;;;;;;;;;;;;;19.37;30.66;95048.09;5031213;28;1158;-73
2023/03/03 05:51:29;;;;;;;;;;;;;;;19.27;30.65;95047.63;5031389;28;1293;-72
2023/03/03 05:53:54;;;;;;;;;;;;;;;19.24;30.60;95050.66;5036710;28;1441;-73
2023/03/03 05:56:19;;;;;;;;;;;;;;;19.26;31.20;95051.28;5032656;28;1104;-80
2023/03/03 05:58:45;;;;;;;;;;;;;;;19.26;32.04;95057.44;5026426;28;1384;-71
2023/03/03 06:01:10;;;;;;;;;;;;;;;19.39;31.90;95053.22;5028317;28;1492;-75
2023/03/03 06:03:36;;;;;;;;;;;;;;;19.49;31.06;95054.47;5034304;28;1956;-72
2023/03/03 06:06:01;;;;;;;;;;;;;;;19.60;31.25;95052.28;5017218;28;1460;-71
2023/03/03 06:08:26;;;;;;;;;;;;;;;19.70;31.02;95050.94;5009475;28;1378;-70
2023/03/03 06:10:52;;;;;;;;;;;;;;;19.44;29.95;95051.63;5035250;28;1576;-71
2023/03/03 06:13:17;;;;;;;;;;;;;;;18.96;30.51;95050.72;5017915;28;1228;-69
2023/03/03 06:15:42;;;;;;;;;;;;;;;18.69;30.71;95055.78;5035405;28;964;-70
2023/03/03 06:18:08;;;;;;;;;;;;;;;18.45;30.78;95056.22;5047905;28;1263;-71
2023/03/03 06:20:34;;;;;;;;;;;;;;;18.16;33.25;95058.81;5031459;28;1404;-70
2023/03/03 06:22:59;;;;;;;;;;;;;;;18.43;33.38;95064.34;5017373;28;1947;-68
2023/03/03 06:25:25;;;;;;;;;;;;;;;18.88;33.06;95059.66;5035562;28;1441;-70
2023/03/03 06:27:50;;;;;;;;;;;;;;;19.36;32.61;95059.75;5037999;28;1075;-77
2023/03/03 06:30:15;;;;;;;;;;;;;;;19.55;32.48;95056.38;5029954;28;1468;-69
2023/03/03 06:32:41;;;;;;;;;;;;;;;19.96;32.61;95066.19;5034966;28;1088;-69
2023/03/03 06:35:06;;;;;;;;;;;;;;;20.35;32.43;95054.00;5048987;28;1291;-69
2023/03/03 06:37:31;;;;;;;;;;;;;;;20.61;32.36;95053.22;5028449;28;1162;-70
2023/03/03 06:39:57;;;;;;;;;;;;;;;20.82;31.97;95062.84;5040212;28;1108;-70
2023/03/03 06:42:23;;;;;;;;;;;;;;;20.96;31.88;95054.84;5006848;28;1897;-70
2023/03/03 06:44:49;;;;;;;;;;;;;;;21.04;32.12;95058.13;5017279;28;1228;-70
2023/03/03 06:47:14;;;;;;;;;;;;;;;21.13;32.02;95072.06;5049923;28;1196;-70
2023/03/03 06:49:39;;;;;;;;;;;;;;;21.17;31.87;95065.28;5050352;28;1200;-70
2023/03/03 06:52:10;;;;;;;;;;;;;;;21.24;32.11;95065.28;5048339;28;1210;-73
2023/03/03 06:54:36;;;;;;;;;;;;;;;21.30;31.87;95067.13;5029716;28;1120;-70
2023/03/03 06:57:06;;;;;;;;;;;;;;;21.36;31.88;95070.78;5034929;28;880;-70
2023/03/03 06:59:32;;;;;;;;;;;;;;;21.38;31.96;95064.25;5034968;28;921;-69
2023/03/03 07:01:57;;;;;;;;;;;;;;;21.41;31.84;95057.69;5050156;28;1464;-70
2023/03/03 07:04:30;;;;;;;;;;;;;;;21.44;32.00;95063.41;5039806;28;1910;-71
2023/03/03 07:07:10;;;;;;;;;;;;;;;21.47;31.84;95068.34;5016634;28;1427;-69
2023/03/03 07:09:35;;;;;;;;;;;;;;;21.50;32.05;95070.59;5049897;28;1367;-70
2023/03/03 07:12:05;;;;;;;;;;;;;;;21.55;31.90;95064.63;5034637;28;866;-70
2023/03/03 07:14:30;;;;;;;;;;;;;;;21.59;31.90;95070.34;5049663;28;1090;-70
2023/03/03 07:16:58;;;;;;;;;;;;;;;21.62;32.03;95068.06;5039767;28;1177;-69
2023/03/03 07:19:33;;;;;;;;;;;;;;;21.65;31.90;95064.97;5049696;28;1319;-70
2023/03/03 07:22:00;;;;;;;;;;;;;;;21.67;31.88;95056.78;5034477;28;786;-70
2023/03/03 07:24:27;;;;;;;;;;;;;;;21.69;32.06;95060.88;5034292;28;1961;-69
2023/03/03 07:27:16;;;;;;;;;;;;;;;21.72;31.98;95057.78;5041459;28;1192;-70
2023/03/03 07:29:41;;;;;;;;;;;;;;;21.74;32.01;95061.06;5008489;28;1317;-69
2023/03/03 07:32:20;;;;;;;;;;;;;;;21.76;31.98;95059.00;5034424;28;857;-70
2023/03/03 07:34:46;;;;;;;;;;;;;;;21.81;31.85;95057.56;5034232;28;886;-70
2023/03/03 07:37:16;;;;;;;;;;;;;;;21.81;31.73;95057.56;5034147;28;878;-70
2023/03/03 07:39:46;;;;;;;;;;;;;;;21.83;31.97;95053.63;5038633;28;1212;-70
2023/03/03 07:42:19;;;;;;;;;;;;;;;21.85;32.01;95054.22;5033912;28;917;-72
2023/03/03 07:44:47;;;;;;;;;;;;;;;21.87;32.10;95051.34;5034069;28;846;-70
2023/03/03 07:47:12;;;;;;;;;;;;;;;21.88;31.90;95047.66;5049185;28;1500;-69
2023/03/03 07:49:38;;;;;;;;;;;;;;;21.90;31.91;95057.09;5024513;28;973;-70
2023/03/03 07:52:22;;;;;;;;;;;;;;;21.92;32.01;95055.03;5048554;28;1212;-70
2023/03/03 07:54:47;;;;;;;;;;;;;;;21.94;31.93;95060.13;5049134;28;1236;-70
2023/03/03 07:57:16;;;;;;;;;;;;;;;21.94;32.08;95058.31;5049103;28;1260;-70
2023/03/03 07:59:51;;;;;;;;;;;;;;;21.95;31.76;95043.91;5049084;28;1295;-70
2023/03/03 08:02:32;;;;;;;;;;;;;;;21.99;31.87;95052.31;5023415;28;1902;-70
2023/03/03 08:04:57;;;;;;;;;;;;;;;22.00;31.86;95051.31;5048920;28;1259;-70
2023/03/03 08:07:22;;;;;;;;;;;;;;;22.00;31.86;95036.09;5048420;28;1323;-69
2023/03/03 08:09:49;;;;;;;;;;;;;;;22.02;31.79;95043.88;5033379;28;920;-69
2023/03/03 08:12:18;;;;;;;;;;;;;;;22.03;31.89;95048.19;5026758;28;1079;-69
2023/03/03 08:14:44;;;;;;;;;;;;;;;22.04;31.88;95046.34;5031312;28;1211;-70
2023/03/03 08:17:19;;;;;;;;;;;;;;;22.04;31.87;95044.50;5033379;28;1342;-72
2023/03/03 08:19:45;;;;;;;;;;;;;;;22.05;31.92;95048.78;5048622;28;1350;-69
2023/03/03 08:22:18;;;;;;;;;;;;;;;22.05;31.96;95043.44;5033208;28;1123;-69
2023/03/03 08:24:43;;;;;;;;;;;;;;;22.07;31.94;95041.38;5022883;28;1068;-69
2023/03/03 08:27:08;;;;;;;;;;;;;;;22.08;32.04;95037.66;5032855;28;913;-69
2023/03/03 08:29:33;;;;;;;;;;;;;;;22.08;31.95;95032.31;5033112;28;878;-69
2023/03/03 08:31:59;;;;;;;;;;;;;;;22.09;31.94;95044.66;5015388;28;1216;-69
2023/03/03 08:34:24;;;;;;;;;;;;;;;22.12;31.78;95035.41;5044060;28;1304;-69
2023/03/03 08:36:49;;;;;;;;;;;;;;;22.12;31.92;95030.06;5042324;28;1219;-69
2023/03/03 08:39:15;;;;;;;;;;;;;;;22.13;31.87;95034.38;5015409;28;1381;-70
2023/03/03 08:41:42;;;;;;;;;;;;;;;22.13;31.71;95039.72;5033100;28;941;-69
2023/03/03 08:44:08;;;;;;;;;;;;;;;22.14;31.90;95034.16;5032796;28;1906;-70
2023/03/03 08:46:33;;;;;;;;;;;;;;;22.15;31.72;95030.44;5023312;28;1185;-69
2023/03/03 08:48:58;;;;;;;;;;;;;;;22.16;31.87;95037.44;5048092;28;1228;-70
2023/03/03 08:51:25;;;;;;;;;;;;;;;22.16;31.73;95040.09;5032985;28;960;-71
2023/03/03 08:53:50;;;;;;;;;;;;;;;22.18;31.91;95030.06;5048187;28;1207;-71
2023/03/03 08:56:15;;;;;;;;;;;;;;;22.18;31.81;95032.72;5033127;28;814;-69
2023/03/03 08:58:46;;;;;;;;;;;;;;;22.20;31.72;95035.19;5038143;28;1195;-69
2023/03/03 09:01:12;;;;;;;;;;;;;;;22.21;31.90;95026.13;5032839;28;802;-69
2023/03/03 09:03:37;;;;;;;;;;;;;;;22.21;31.75;95037.63;5032556;28;1918;-70
2023/03/03 09:06:03;;;;;;;;;;;;;;;22.23;31.94;95040.91;5032880;28;959;-69
2023/03/03 09:08:28;;;;;;;;;;;;;;;21.93;31.60;94986.41;5011509;28;1177;-69
2023/03/03 09:10:53;;;;;;;;;;;;;;;22.25;31.67;95032.66;5026256;28;1089;-69
2023/03/03 09:13:19;;;;;;;;;;;;;;;22.27;31.62;95040.50;5014537;28;1192;-69
2023/03/03 09:15:44;;;;;;;;;;;;;;;22.28;31.64;95034.09;5032578;28;906;-72
2023/03/03 09:18:09;;;;;;;;;;;;;;;22.27;31.89;95035.13;5032535;28;936;-69
2023/03/03 09:20:39;;;;;;;;;;;;;;;22.28;31.72;95031.44;5022827;28;1067;-70
2023/03/03 09:23:20;;;;;;;;;;;;;;;22.29;31.80;95035.75;5032284;28;1906;-70
2023/03/03 09:25:45;;;;;;;;;;;;;;;22.29;31.58;95027.75;5047923;28;1337;-71
2023/03/03 09:28:20;;;;;;;;;;;;;;;22.31;31.77;95031.00;5032573;28;882;-70
2023/03/03 09:30:47;;;;;;;;;;;;;;;22.32;31.82;95029.97;5032671;28;941;-70
2023/03/03 09:33:22;;;;;;;;;;;;;;;22.31;31.62;95036.34;5022565;28;1104;-69
2023/03/03 09:35:49;;;;;;;;;;;;;;;22.32;31.73;95038.00;5032464;28;807;-69
2023/03/03 09:38:23;;;;;;;;;;;;;;;22.34;31.81;95035.91;5034438;28;932;-69
2023/03/03 09:40:58;;;;;;;;;;;;;;;22.34;31.74;95030.56;5036300;28;914;-69
2023/03/03 09:43:35;;;;;;;;;;;;;;;22.35;31.76;95035.69;5026358;28;1963;-69
2023/03/03 09:46:19;;;;;;;;;;;;;;;22.36;31.78;95028.50;5018178;28;1219;-69
2023/03/03 09:48:51;;;;;;;;;;;;;;;22.37;31.75;95027.44;5035991;28;894;-70
2023/03/03 09:51:19;;;;;;;;;;;;;;;22.38;31.55;95029.09;5036340;28;886;-70
2023/03/03 09:54:00;;;;;;;;;;;;;;;22.38;31.55;95031.78;5051414;28;1330;-70
2023/03/03 09:56:28;;;;;;;;;;;;;;;22.37;31.74;95030.13;5030691;28;1050;-69
2023/03/03 09:59:12;;;;;;;;;;;;;;;22.39;31.50;95028.06;5035825;28;810;-69
2023/03/03 10:01:38;;;;;;;;;;;;;;;22.39;31.68;95025.38;5035710;28;1370;-71
2023/03/03 10:04:32;;;;;;;;;;;;;;;22.39;31.64;95028.88;5035745;28;1972;-70
2023/03/03 10:07:10;;;;;;;;;;;;;;;22.39;31.69;95028.88;4995296;28;1190;-69
2023/03/03 10:09:35;;;;;;;;;;;;;;;22.41;31.70;95026.00;5035672;28;818;-69
2023/03/03 10:12:04;;;;;;;;;;;;;;;22.42;31.65;95022.28;5035761;28;988;-70
2023/03/03 10:14:41;;;;;;;;;;;;;;;22.41;31.73;95023.31;5051062;28;1188;-71
2023/03/03 10:17:13;;;;;;;;;;;;;;;22.40;nan;95022.50;5030510;28;1082;-74
2023/03/03 10:19:40;;;;;;;;;;;;;;;22.41;31.55;95026.81;5047410;28;1209;-69
2023/03/03 10:22:12;;;;;;;;;;;;;;;22.42;31.66;95014.25;5050657;28;1429;-69
2023/03/03 10:24:55;;;;;;;;;;;;;;;22.43;31.70;95013.25;5035320;28;1902;-69
2023/03/03 10:27:31;;;;;;;;;;;;;;;22.43;31.74;95007.91;5017529;28;1351;-69
2023/03/03 10:30:15;;;;;;;;;;;;;;;22.43;31.59;95007.91;5025282;28;1120;-69
2023/03/03 10:32:51;;;;;;;;;;;;;;;22.42;31.67;95008.91;5050467;28;1303;-69
2023/03/03 10:35:22;;;;;;;;;;;;;;;22.43;31.66;95003.38;5035118;28;842;-69
2023/03/03 10:37:47;;;;;;;;;;;;;;;22.43;31.73;95000.69;5035279;28;795;-69
2023/03/03 10:40:12;;;;;;;;;;;;;;;22.44;31.82;95004.19;5025424;28;1032;-69
2023/03/03 10:42:51;;;;;;;;;;;;;;;22.46;31.67;95004.78;5034481;28;1906;-69
2023/03/03 10:45:23;;;;;;;;;;;;;;;22.44;31.65;94996.16;5050353;28;1549;-69
2023/03/03 10:48:01;;;;;;;;;;;;;;;22.45;31.60;94995.97;5034827;28;921;-69
2023/03/03 10:50:36;;;;;;;;;;;;;;;22.45;31.51;94997.78;5034855;28;873;-69
2023/03/03 10:53:04;;;;;;;;;;;;;;;22.44;31.68;94994.31;5041335;28;1291;-69
2023/03/03 10:55:34;;;;;;;;;;;;;;;22.44;31.45;94990.81;5050100;28;1562;-69
2023/03/03 10:58:15;;;;;;;;;;;;;;;22.45;31.66;94989.78;5016774;28;1330;-69
2023/03/03 11:00:56;;;;;;;;;;;;;;;22.47;31.63;94986.88;5049847;28;1199;-69
2023/03/03 11:03:24;;;;;;;;;;;;;;;22.46;31.59;94983.41;5024080;28;1962;-69
2023/03/03 11:05:49;;;;;;;;;;;;;;;22.49;31.60;94987.50;5034680;28;882;-69
2023/03/03 11:08:14;;;;;;;;;;;;;;;22.48;31.63;94983.97;5049641;28;1303;-69
2023/03/03 11:10:50;;;;;;;;;;;;;;;22.49;31.67;94984.81;5049324;28;1179;-69
2023/03/03 11:13:24;;;;;;;;;;;;;;;22.49;nan;94980.28;5049689;28;1284;-69
2023/03/03 11:16:08;;;;;;;;;;;;;;;22.49;31.46;94976.81;5027454;28;1075;-69
2023/03/03 11:19:01;;;;;;;;;;;;;;;22.48;nan;94973.28;5034145;28;838;-69
2023/03/03 11:21:41;;;;;;;;;;;;;;;22.48;31.52;94964.47;5034142;28;823;-69
2023/03/03 11:24:06;;;;;;;;;;;;;;;22.49;31.62;94964.25;5033931;28;1890;-69
2023/03/03 11:26:51;;;;;;;;;;;;;;;22.47;31.70;94966.31;5024011;28;1183;-69
2023/03/03 11:29:20;;;;;;;;;;;;;;;22.50;31.57;94965.88;5023210;28;1274;-70
2023/03/03 11:31:45;;;;;;;;;;;;;;;22.50;31.66;94960.53;5034406;28;866;-70
2023/03/03 11:34:23;;;;;;;;;;;;;;;22.50;31.59;94962.41;5034301;28;906;-69
2023/03/03 11:36:54;;;;;;;;;;;;;;;22.51;31.67;94961.34;5041072;28;1179;-69
2023/03/03 11:39:21;;;;;;;;;;;;;;;22.51;31.47;94969.38;5048807;28;1300;-70
2023/03/03 11:42:04;;;;;;;;;;;;;;;22.51;31.61;94962.16;5049201;28;1309;-70
2023/03/03 11:44:40;;;;;;;;;;;;;;;22.50;31.61;94963.22;5034001;28;1954;-70
2023/03/03 11:47:24;;;;;;;;;;;;;;;22.49;31.65;94958.91;5048514;28;1172;-70
2023/03/03 11:50:09;;;;;;;;;;;;;;;22.50;31.52;94957.84;5040731;28;1209;-70
2023/03/03 11:52:38;;;;;;;;;;;;;;;22.51;31.61;94956.81;5015339;28;1190;-69
2023/03/03 11:55:03;;;;;;;;;;;;;;;22.51;31.39;94962.16;5049015;28;1303;-69
2023/03/03 11:57:28;;;;;;;;;;;;;;;22.51;31.42;94946.13;5033599;28;960;-69
2023/03/03 11:59:59;;;;;;;;;;;;;;;22.51;31.48;94956.81;5022663;28;1083;-70
2023/03/03 12:02:25;;;;;;;;;;;;;;;22.52;31.77;94961.13;5048527;28;1914;-70
2023/03/03 12:04:57;;;;;;;;;;;;;;;22.52;31.43;94955.78;5048804;28;1361;-69
2023/03/03 12:07:33;;;;;;;;;;;;;;;22.51;31.65;94951.47;5033580;28;1048;-69
2023/03/03 12:10:02;;;;;;;;;;;;;;;22.52;31.57;94947.78;5033597;28;878;-70
2023/03/03 12:12:37;;;;;;;;;;;;;;;22.52;31.62;94953.13;5038694;28;1320;-70
2023/03/03 12:15:07;;;;;;;;;;;;;;;22.53;31.63;94951.25;5048077;28;1359;-69
2023/03/03 12:17:41;;;;;;;;;;;;;;;22.53;31.44;94953.94;5033427;28;877;-69
2023/03/03 12:20:13;;;;;;;;;;;;;;;22.52;31.64;94955.78;5048794;28;1330;-70
2023/03/03 12:22:47;;;;;;;;;;;;;;;22.52;31.57;94958.47;5023320;28;1977;-71
2023/03/03 12:25:18;;;;;;;;;;;;;;;22.54;31.61;94960.91;5033257;28;909;-71
2023/03/03 12:27:59;;;;;;;;;;;;;;;22.53;31.63;94960.09;5033371;28;979;-72
2023/03/03 12:30:36;;;;;;;;;;;;;;;22.53;31.59;94952.06;5033268;28;849;-71
2023/03/03 12:33:09;;;;;;;;;;;;;;;22.52;31.62;94955.78;5043695;28;1283;-74
2023/03/03 12:35:40;;;;;;;;;;;;;;;22.52;31.48;94958.47;5043275;28;1257;-70
2023/03/03 12:38:15;;;;;;;;;;;;;;;22.53;31.58;94960.09;5048319;28;1538;-70
2023/03/03 12:40:45;;;;;;;;;;;;;;;22.53;31.60;94956.59;5033057;28;929;-68
2023/03/03 12:43:29;;;;;;;;;;;;;;;22.52;31.75;94958.47;5048258;28;1957;-70
2023/03/03 12:46:33;;;;;;;;;;;;;;;22.53;31.38;94962.75;5038290;28;1283;-70
2023/03/03 12:48:58;;;;;;;;;;;;;;;22.52;31.51;94961.13;4972205;28;1251;-70
2023/03/03 12:51:33;;;;;;;;;;;;;;;22.54;31.67;94958.22;4972011;28;1287;-70
2023/03/03 12:54:16;;;;;;;;;;;;;;;22.52;31.64;94963.81;5003628;28;924;-70
2023/03/03 12:56:51;;;;;;;;;;;;;;;22.53;31.61;94959.28;5022998;28;1112;-70
2023/03/03 12:59:54;;;;;;;;;;;;;;;22.53;31.54;94951.25;5033033;28;983;-70
2023/03/03 13:02:25;;;;;;;;;;;;;;;22.53;31.39;94952.06;4971703;28;1241;-74
2023/03/03 13:04:55;;;;;;;;;;;;;;;22.54;31.57;94960.91;4971778;28;1919;-70
2023/03/03 13:07:25;;;;;;;;;;;;;;;22.54;31.51;94948.38;4982237;28;1178;-71